sensor_id;sensor_type;location;lat;lon;timestamp;P1;durP1;ratioP1;P2;durP2;ratioP2
8171;SDS011;4127;47.908;10.850;2022-11-14T00:02:19;4.70;;;4.30;;
8171;SDS011;4127;47.908;10.850;2022-11-14T00:04:54;3.70;;;3.40;;
8171;SDS011;4127;47.908;10.850;2022-11-14T00:10:13;4.13;;;3.77;;
8171;SDS011;4127;47.908;10.850;2022-11-14T00:15:35;4.10;;;3.80;;
8171;SDS011;4127;47.908;10.850;2022-11-14T00:31:49;3.13;;;2.87;;
8171;SDS011;4127;47.908;10.850;2022-11-14T00:50:44;3.00;;;2.80;;
8171;SDS011;4127;47.908;10.850;2022-11-14T00:58:27;3.20;;;3.00;;
8171;SDS011;4127;47.908;10.850;2022-11-14T01:06:41;2.90;;;2.70;;
8171;SDS011;4127;47.908;10.850;2022-11-14T01:09:20;2.80;;;2.60;;
8171;SDS011;4127;47.908;10.850;2022-11-14T01:11:56;2.70;;;2.50;;
8171;SDS011;4127;47.908;10.850;2022-11-14T01:19:38;3.63;;;3.33;;
8171;SDS011;4127;47.908;10.850;2022-11-14T01:22:06;3.60;;;3.30;;
8171;SDS011;4127;47.908;10.850;2022-11-14T01:29:54;9.97;;;4.43;;
8171;SDS011;4127;47.908;10.850;2022-11-14T01:37:29;4.13;;;3.57;;
8171;SDS011;4127;47.908;10.850;2022-11-14T01:39:58;3.70;;;3.40;;
8171;SDS011;4127;47.908;10.850;2022-11-14T01:44:54;3.70;;;3.40;;
8171;SDS011;4127;47.908;10.850;2022-11-14T01:49:49;3.30;;;3.00;;
8171;SDS011;4127;47.908;10.850;2022-11-14T01:52:36;2.80;;;2.60;;
8171;SDS011;4127;47.908;10.850;2022-11-14T02:03:13;2.90;;;2.70;;
8171;SDS011;4127;47.908;10.850;2022-11-14T02:08:09;2.80;;;2.60;;
8171;SDS011;4127;47.908;10.850;2022-11-14T02:21:14;3.40;;;2.97;;
8171;SDS011;4127;47.908;10.850;2022-11-14T02:29:09;3.30;;;3.10;;
8171;SDS011;4127;47.908;10.850;2022-11-14T02:42:41;3.67;;;2.63;;
8171;SDS011;4127;47.908;10.850;2022-11-14T02:47:51;3.00;;;2.80;;
8171;SDS011;4127;47.908;10.850;2022-11-14T02:52:45;3.20;;;3.00;;
8171;SDS011;4127;47.908;10.850;2022-11-14T02:55:14;2.87;;;2.67;;
8171;SDS011;4127;47.908;10.850;2022-11-14T02:57:47;2.90;;;2.70;;
8171;SDS011;4127;47.908;10.850;2022-11-14T03:03:01;3.27;;;2.97;;
8171;SDS011;4127;47.908;10.850;2022-11-14T03:05:28;3.10;;;2.90;;
8171;SDS011;4127;47.908;10.850;2022-11-14T03:07:55;2.87;;;2.67;;
8171;SDS011;4127;47.908;10.850;2022-11-14T03:10:23;3.57;;;3.23;;
8171;SDS011;4127;47.908;10.850;2022-11-14T03:12:54;3.67;;;3.37;;
8171;SDS011;4127;47.908;10.850;2022-11-14T03:15:21;3.50;;;3.20;;
8171;SDS011;4127;47.908;10.850;2022-11-14T03:22:56;3.53;;;3.23;;
8171;SDS011;4127;47.908;10.850;2022-11-14T03:25:23;3.63;;;3.33;;
8171;SDS011;4127;47.908;10.850;2022-11-14T03:27:50;3.50;;;3.20;;
8171;SDS011;4127;47.908;10.850;2022-11-14T03:35:25;3.40;;;3.10;;
8171;SDS011;4127;47.908;10.850;2022-11-14T03:42:58;3.63;;;3.33;;
8171;SDS011;4127;47.908;10.850;2022-11-14T03:45:29;3.27;;;3.00;;
8171;SDS011;4127;47.908;10.850;2022-11-14T03:47:57;4.43;;;3.33;;
8171;SDS011;4127;47.908;10.850;2022-11-14T03:50:25;3.57;;;3.27;;
8171;SDS011;4127;47.908;10.850;2022-11-14T03:52:54;3.27;;;2.97;;
8171;SDS011;4127;47.908;10.850;2022-11-14T03:58:08;2.90;;;2.70;;
8171;SDS011;4127;47.908;10.850;2022-11-14T04:00:35;3.30;;;3.10;;
8171;SDS011;4127;47.908;10.850;2022-11-14T04:03:03;3.10;;;2.90;;
8171;SDS011;4127;47.908;10.850;2022-11-14T04:05:30;3.73;;;3.13;;
8171;SDS011;4127;47.908;10.850;2022-11-14T04:07:57;4.07;;;3.27;;
8171;SDS011;4127;47.908;10.850;2022-11-14T04:10:24;3.27;;;2.97;;
8171;SDS011;4127;47.908;10.850;2022-11-14T04:12:52;3.00;;;2.80;;
8171;SDS011;4127;47.908;10.850;2022-11-14T04:15:19;2.83;;;2.63;;
8171;SDS011;4127;47.908;10.850;2022-11-14T04:17:46;2.77;;;2.57;;
8171;SDS011;4127;47.908;10.850;2022-11-14T04:20:14;2.73;;;2.53;;
8171;SDS011;4127;47.908;10.850;2022-11-14T04:22:41;2.60;;;2.40;;
8171;SDS011;4127;47.908;10.850;2022-11-14T04:30:32;3.00;;;2.70;;
8171;SDS011;4127;47.908;10.850;2022-11-14T04:33:00;2.90;;;2.70;;
8171;SDS011;4127;47.908;10.850;2022-11-14T04:35:27;2.97;;;2.73;;
8171;SDS011;4127;47.908;10.850;2022-11-14T04:40:35;2.80;;;2.60;;
8171;SDS011;4127;47.908;10.850;2022-11-14T04:45:46;2.80;;;2.50;;
8171;SDS011;4127;47.908;10.850;2022-11-14T04:48:23;2.70;;;2.50;;
8171;SDS011;4127;47.908;10.850;2022-11-14T04:50:50;2.90;;;2.43;;
8171;SDS011;4127;47.908;10.850;2022-11-14T04:56:08;2.73;;;2.53;;
8171;SDS011;4127;47.908;10.850;2022-11-14T05:03:59;3.40;;;3.10;;
8171;SDS011;4127;47.908;10.850;2022-11-14T05:09:06;3.10;;;2.90;;
8171;SDS011;4127;47.908;10.850;2022-11-14T05:17:03;3.60;;;2.80;;
8171;SDS011;4127;47.908;10.850;2022-11-14T05:27:25;3.63;;;3.27;;
8171;SDS011;4127;47.908;10.850;2022-11-14T05:29:52;3.23;;;2.93;;
8171;SDS011;4127;47.908;10.850;2022-11-14T05:32:20;3.23;;;2.93;;
8171;SDS011;4127;47.908;10.850;2022-11-14T05:34:47;3.20;;;2.90;;
8171;SDS011;4127;47.908;10.850;2022-11-14T05:42:28;2.90;;;2.70;;
8171;SDS011;4127;47.908;10.850;2022-11-14T05:44:55;2.73;;;2.53;;
8171;SDS011;4127;47.908;10.850;2022-11-14T05:49:48;2.80;;;2.60;;
8171;SDS011;4127;47.908;10.850;2022-11-14T05:52:16;2.60;;;2.40;;
8171;SDS011;4127;47.908;10.850;2022-11-14T05:54:43;2.60;;;2.40;;
8171;SDS011;4127;47.908;10.850;2022-11-14T05:57:10;2.40;;;2.20;;
8171;SDS011;4127;47.908;10.850;2022-11-14T05:59:37;2.50;;;2.30;;
8171;SDS011;4127;47.908;10.850;2022-11-14T06:02:05;3.30;;;2.80;;
8171;SDS011;4127;47.908;10.850;2022-11-14T06:04:32;3.13;;;2.80;;
8171;SDS011;4127;47.908;10.850;2022-11-14T06:06:59;2.60;;;2.40;;
8171;SDS011;4127;47.908;10.850;2022-11-14T06:09:26;2.93;;;2.63;;
8171;SDS011;4127;47.908;10.850;2022-11-14T06:11:53;2.90;;;2.60;;
8171;SDS011;4127;47.908;10.850;2022-11-14T06:14:20;2.40;;;2.20;;
8171;SDS011;4127;47.908;10.850;2022-11-14T06:16:46;2.87;;;2.60;;
8171;SDS011;4127;47.908;10.850;2022-11-14T06:21:55;2.80;;;2.60;;
8171;SDS011;4127;47.908;10.850;2022-11-14T06:27:15;2.67;;;2.40;;
8171;SDS011;4127;47.908;10.850;2022-11-14T06:35:17;4.30;;;3.30;;
8171;SDS011;4127;47.908;10.850;2022-11-14T06:57:20;4.17;;;3.20;;
8171;SDS011;4127;47.908;10.850;2022-11-14T07:07:38;3.20;;;2.80;;
8171;SDS011;4127;47.908;10.850;2022-11-14T07:31:31;3.33;;;3.03;;
8171;SDS011;4127;47.908;10.850;2022-11-14T07:39:25;3.77;;;2.77;;
8171;SDS011;4127;47.908;10.850;2022-11-14T07:41:53;3.43;;;3.13;;
8171;SDS011;4127;47.908;10.850;2022-11-14T07:44:20;3.20;;;2.80;;
8171;SDS011;4127;47.908;10.850;2022-11-14T07:47:41;5.13;;;3.20;;
8171;SDS011;4127;47.908;10.850;2022-11-14T07:50:09;3.73;;;3.27;;
8171;SDS011;4127;47.908;10.850;2022-11-14T07:52:59;4.33;;;3.33;;
8171;SDS011;4127;47.908;10.850;2022-11-14T07:55:26;3.60;;;3.27;;
8171;SDS011;4127;47.908;10.850;2022-11-14T07:58:23;3.83;;;3.40;;
8171;SDS011;4127;47.908;10.850;2022-11-14T08:01:15;3.17;;;2.60;;
8171;SDS011;4127;47.908;10.850;2022-11-14T08:03:42;2.60;;;2.40;;
8171;SDS011;4127;47.908;10.850;2022-11-14T08:06:13;2.60;;;2.40;;
8171;SDS011;4127;47.908;10.850;2022-11-14T08:08:41;3.30;;;3.00;;
8171;SDS011;4127;47.908;10.850;2022-11-14T08:11:17;2.77;;;2.57;;
8171;SDS011;4127;47.908;10.850;2022-11-14T08:14:38;2.43;;;2.23;;
8171;SDS011;4127;47.908;10.850;2022-11-14T08:17:21;2.97;;;2.63;;
8171;SDS011;4127;47.908;10.850;2022-11-14T08:20:12;3.33;;;3.00;;
8171;SDS011;4127;47.908;10.850;2022-11-14T08:22:41;2.80;;;2.60;;
8171;SDS011;4127;47.908;10.850;2022-11-14T08:25:31;5.50;;;4.90;;
8171;SDS011;4127;47.908;10.850;2022-11-14T08:28:28;3.23;;;2.93;;
8171;SDS011;4127;47.908;10.850;2022-11-14T08:31:13;2.93;;;2.60;;
8171;SDS011;4127;47.908;10.850;2022-11-14T08:34:27;2.60;;;2.40;;
8171;SDS011;4127;47.908;10.850;2022-11-14T08:37:50;2.57;;;2.37;;
8171;SDS011;4127;47.908;10.850;2022-11-14T08:41:23;2.43;;;2.23;;
8171;SDS011;4127;47.908;10.850;2022-11-14T08:44:34;2.60;;;2.40;;
8171;SDS011;4127;47.908;10.850;2022-11-14T08:47:50;2.53;;;2.33;;
8171;SDS011;4127;47.908;10.850;2022-11-14T08:50:42;2.67;;;2.47;;
8171;SDS011;4127;47.908;10.850;2022-11-14T08:54:05;2.60;;;2.40;;
8171;SDS011;4127;47.908;10.850;2022-11-14T08:56:37;2.70;;;2.50;;
8171;SDS011;4127;47.908;10.850;2022-11-14T08:59:10;4.13;;;2.40;;
8171;SDS011;4127;47.908;10.850;2022-11-14T09:01:44;2.60;;;2.40;;
8171;SDS011;4127;47.908;10.850;2022-11-14T09:04:19;3.50;;;3.20;;
8171;SDS011;4127;47.908;10.850;2022-11-14T09:07:13;5.37;;;4.63;;
8171;SDS011;4127;47.908;10.850;2022-11-14T09:09:49;5.83;;;4.83;;
8171;SDS011;4127;47.908;10.850;2022-11-14T09:12:17;6.67;;;6.03;;
8171;SDS011;4127;47.908;10.850;2022-11-14T09:14:46;5.60;;;5.00;;
8171;SDS011;4127;47.908;10.850;2022-11-14T09:17:13;4.53;;;4.10;;
8171;SDS011;4127;47.908;10.850;2022-11-14T09:23:52;3.70;;;3.27;;
8171;SDS011;4127;47.908;10.850;2022-11-14T09:26:37;4.27;;;3.00;;
8171;SDS011;4127;47.908;10.850;2022-11-14T09:29:28;3.20;;;2.90;;
8171;SDS011;4127;47.908;10.850;2022-11-14T10:35:38;3.97;;;2.30;;
8171;SDS011;4127;47.908;10.850;2022-11-14T10:38:54;2.53;;;2.30;;
8171;SDS011;4127;47.908;10.850;2022-11-14T10:41:54;2.30;;;2.10;;
8171;SDS011;4127;47.908;10.850;2022-11-14T10:56:47;2.33;;;2.13;;
8171;SDS011;4127;47.908;10.850;2022-11-14T11:02:17;2.70;;;2.50;;
8171;SDS011;4127;47.908;10.850;2022-11-14T11:04:44;3.53;;;2.60;;
8171;SDS011;4127;47.908;10.850;2022-11-14T11:17:17;2.70;;;2.50;;
8171;SDS011;4127;47.908;10.850;2022-11-14T11:19:47;4.30;;;2.80;;
8171;SDS011;4127;47.908;10.850;2022-11-14T11:24:50;2.70;;;2.50;;
8171;SDS011;4127;47.908;10.850;2022-11-14T11:27:20;4.03;;;2.43;;
8171;SDS011;4127;47.908;10.850;2022-11-14T11:32:54;2.70;;;2.50;;
8171;SDS011;4127;47.908;10.850;2022-11-14T11:35:21;3.13;;;2.50;;
8171;SDS011;4127;47.908;10.850;2022-11-14T11:37:49;3.63;;;2.40;;
8171;SDS011;4127;47.908;10.850;2022-11-14T11:40:23;2.80;;;2.60;;
8171;SDS011;4127;47.908;10.850;2022-11-14T11:45:57;2.70;;;2.50;;
8171;SDS011;4127;47.908;10.850;2022-11-14T11:51:48;2.27;;;2.17;;
8171;SDS011;4127;47.908;10.850;2022-11-14T11:54:51;2.30;;;2.10;;
8171;SDS011;4127;47.908;10.850;2022-11-14T11:58:21;2.10;;;2.00;;
8171;SDS011;4127;47.908;10.850;2022-11-14T12:01:36;2.47;;;2.27;;
8171;SDS011;4127;47.908;10.850;2022-11-14T12:04:17;2.40;;;2.10;;
8171;SDS011;4127;47.908;10.850;2022-11-14T12:07:37;2.73;;;2.53;;
8171;SDS011;4127;47.908;10.850;2022-11-14T12:32:06;5.53;;;2.93;;
8171;SDS011;4127;47.908;10.850;2022-11-14T12:34:44;3.23;;;2.93;;
8171;SDS011;4127;47.908;10.850;2022-11-14T12:37:28;3.77;;;3.47;;
8171;SDS011;4127;47.908;10.850;2022-11-14T12:40:05;3.43;;;3.13;;
8171;SDS011;4127;47.908;10.850;2022-11-14T12:42:48;5.63;;;3.30;;
8171;SDS011;4127;47.908;10.850;2022-11-14T16:38:08;8.13;;;6.57;;
8171;SDS011;4127;47.908;10.850;2022-11-14T16:40:38;11.23;;;7.83;;
8171;SDS011;4127;47.908;10.850;2022-11-14T16:43:43;19.08;;;12.73;;
8171;SDS011;4127;47.908;10.850;2022-11-14T16:46:32;17.63;;;10.60;;
8171;SDS011;4127;47.908;10.850;2022-11-14T16:49:03;16.20;;;9.60;;
8171;SDS011;4127;47.908;10.850;2022-11-14T16:51:51;18.37;;;10.33;;
8171;SDS011;4127;47.908;10.850;2022-11-14T16:54:32;15.13;;;9.10;;
8171;SDS011;4127;47.908;10.850;2022-11-14T16:57:00;15.73;;;9.20;;
8171;SDS011;4127;47.908;10.850;2022-11-14T16:59:28;15.83;;;9.50;;
8171;SDS011;4127;47.908;10.850;2022-11-14T17:02:31;16.07;;;8.00;;
8171;SDS011;4127;47.908;10.850;2022-11-14T17:04:59;10.93;;;6.77;;
8171;SDS011;4127;47.908;10.850;2022-11-14T17:07:26;7.07;;;6.03;;
8171;SDS011;4127;47.908;10.850;2022-11-14T17:17:42;4.77;;;4.17;;
8171;SDS011;4127;47.908;10.850;2022-11-14T17:20:15;4.60;;;4.20;;
8171;SDS011;4127;47.908;10.850;2022-11-14T17:22:43;5.87;;;5.43;;
8171;SDS011;4127;47.908;10.850;2022-11-14T17:25:41;5.00;;;4.60;;
8171;SDS011;4127;47.908;10.850;2022-11-14T17:28:11;4.70;;;4.30;;
8171;SDS011;4127;47.908;10.850;2022-11-14T17:30:40;3.97;;;3.57;;
8171;SDS011;4127;47.908;10.850;2022-11-14T17:33:08;3.97;;;3.60;;
8171;SDS011;4127;47.908;10.850;2022-11-14T17:35:42;4.80;;;3.83;;
8171;SDS011;4127;47.908;10.850;2022-11-14T17:38:09;4.20;;;3.80;;
8171;SDS011;4127;47.908;10.850;2022-11-14T17:45:56;4.80;;;4.40;;
8171;SDS011;4127;47.908;10.850;2022-11-14T17:48:50;4.73;;;3.97;;
8171;SDS011;4127;47.908;10.850;2022-11-14T17:51:55;7.07;;;6.20;;
8171;SDS011;4127;47.908;10.850;2022-11-14T17:54:22;6.57;;;5.93;;
8171;SDS011;4127;47.908;10.850;2022-11-14T17:56:49;4.53;;;3.73;;
8171;SDS011;4127;47.908;10.850;2022-11-14T17:59:20;3.63;;;3.33;;
8171;SDS011;4127;47.908;10.850;2022-11-14T18:01:47;4.27;;;3.37;;
8171;SDS011;4127;47.908;10.850;2022-11-14T18:04:15;3.57;;;3.27;;
8171;SDS011;4127;47.908;10.850;2022-11-14T18:06:42;3.90;;;3.50;;
8171;SDS011;4127;47.908;10.850;2022-11-14T18:09:10;3.57;;;3.27;;
8171;SDS011;4127;47.908;10.850;2022-11-14T18:11:41;3.77;;;3.47;;
8171;SDS011;4127;47.908;10.850;2022-11-14T18:14:09;4.40;;;4.00;;
8171;SDS011;4127;47.908;10.850;2022-11-14T18:16:37;4.33;;;3.80;;
8171;SDS011;4127;47.908;10.850;2022-11-14T18:19:25;3.70;;;3.40;;
8171;SDS011;4127;47.908;10.850;2022-11-14T18:21:52;3.60;;;3.30;;
8171;SDS011;4127;47.908;10.850;2022-11-14T18:24:20;4.13;;;3.73;;
8171;SDS011;4127;47.908;10.850;2022-11-14T18:26:49;5.50;;;4.27;;
8171;SDS011;4127;47.908;10.850;2022-11-14T18:39:47;9.87;;;6.60;;
8171;SDS011;4127;47.908;10.850;2022-11-14T18:42:42;10.43;;;7.77;;
8171;SDS011;4127;47.908;10.850;2022-11-14T18:45:09;12.57;;;9.00;;
8171;SDS011;4127;47.908;10.850;2022-11-14T18:47:36;5.93;;;5.20;;
8171;SDS011;4127;47.908;10.850;2022-11-14T18:50:03;4.70;;;4.17;;
8171;SDS011;4127;47.908;10.850;2022-11-14T18:52:30;4.37;;;3.97;;
8171;SDS011;4127;47.908;10.850;2022-11-14T18:55:05;4.10;;;3.70;;
8171;SDS011;4127;47.908;10.850;2022-11-14T18:57:42;5.17;;;4.60;;
8171;SDS011;4127;47.908;10.850;2022-11-14T19:00:11;7.60;;;5.67;;
8171;SDS011;4127;47.908;10.850;2022-11-14T19:02:48;6.27;;;5.67;;
8171;SDS011;4127;47.908;10.850;2022-11-14T19:05:16;4.80;;;4.40;;
8171;SDS011;4127;47.908;10.850;2022-11-14T19:07:43;4.23;;;3.83;;
8171;SDS011;4127;47.908;10.850;2022-11-14T19:10:10;7.20;;;5.43;;
8171;SDS011;4127;47.908;10.850;2022-11-14T19:12:37;5.83;;;5.23;;
8171;SDS011;4127;47.908;10.850;2022-11-14T19:15:04;7.80;;;6.47;;
8171;SDS011;4127;47.908;10.850;2022-11-14T19:17:33;5.50;;;4.80;;
8171;SDS011;4127;47.908;10.850;2022-11-14T19:20:01;5.30;;;4.80;;
8171;SDS011;4127;47.908;10.850;2022-11-14T19:22:28;5.07;;;4.67;;
8171;SDS011;4127;47.908;10.850;2022-11-14T19:24:55;4.33;;;3.93;;
8171;SDS011;4127;47.908;10.850;2022-11-14T19:27:24;3.93;;;3.63;;
8171;SDS011;4127;47.908;10.850;2022-11-14T19:29:51;4.67;;;4.27;;
8171;SDS011;4127;47.908;10.850;2022-11-14T19:32:18;4.20;;;3.80;;
8171;SDS011;4127;47.908;10.850;2022-11-14T19:34:45;6.17;;;4.23;;
8171;SDS011;4127;47.908;10.850;2022-11-14T19:37:12;4.43;;;3.93;;
8171;SDS011;4127;47.908;10.850;2022-11-14T19:39:39;4.10;;;3.70;;
8171;SDS011;4127;47.908;10.850;2022-11-14T19:42:06;5.00;;;4.50;;
8171;SDS011;4127;47.908;10.850;2022-11-14T19:44:33;4.97;;;4.57;;
8171;SDS011;4127;47.908;10.850;2022-11-14T19:47:00;4.17;;;3.77;;
8171;SDS011;4127;47.908;10.850;2022-11-14T19:49:27;4.40;;;4.00;;
8171;SDS011;4127;47.908;10.850;2022-11-14T19:51:56;4.53;;;4.13;;
8171;SDS011;4127;47.908;10.850;2022-11-14T19:54:23;4.63;;;4.23;;
8171;SDS011;4127;47.908;10.850;2022-11-14T19:56:50;5.33;;;4.83;;
8171;SDS011;4127;47.908;10.850;2022-11-14T19:59:20;4.87;;;4.37;;
8171;SDS011;4127;47.908;10.850;2022-11-14T20:01:50;4.13;;;3.83;;
8171;SDS011;4127;47.908;10.850;2022-11-14T20:04:21;3.77;;;3.47;;
8171;SDS011;4127;47.908;10.850;2022-11-14T20:06:48;4.70;;;3.67;;
8171;SDS011;4127;47.908;10.850;2022-11-14T20:09:15;4.17;;;3.77;;
8171;SDS011;4127;47.908;10.850;2022-11-14T20:11:42;4.10;;;3.60;;
8171;SDS011;4127;47.908;10.850;2022-11-14T20:14:10;3.63;;;3.33;;
8171;SDS011;4127;47.908;10.850;2022-11-14T20:16:38;4.20;;;3.90;;
8171;SDS011;4127;47.908;10.850;2022-11-14T20:19:05;4.20;;;3.90;;
8171;SDS011;4127;47.908;10.850;2022-11-14T20:21:32;3.63;;;3.30;;
8171;SDS011;4127;47.908;10.850;2022-11-14T20:24:00;2.97;;;2.77;;
8171;SDS011;4127;47.908;10.850;2022-11-14T20:26:27;3.47;;;3.17;;
8171;SDS011;4127;47.908;10.850;2022-11-14T20:28:54;4.50;;;3.40;;
8171;SDS011;4127;47.908;10.850;2022-11-14T20:31:22;3.93;;;3.63;;
8171;SDS011;4127;47.908;10.850;2022-11-14T20:33:52;3.83;;;3.47;;
8171;SDS011;4127;47.908;10.850;2022-11-14T20:36:21;4.40;;;3.43;;
8171;SDS011;4127;47.908;10.850;2022-11-14T20:38:50;3.60;;;3.30;;
8171;SDS011;4127;47.908;10.850;2022-11-14T20:41:17;3.90;;;3.57;;
8171;SDS011;4127;47.908;10.850;2022-11-14T20:43:45;3.83;;;3.40;;
8171;SDS011;4127;47.908;10.850;2022-11-14T20:46:13;3.73;;;3.40;;
8171;SDS011;4127;47.908;10.850;2022-11-14T20:48:45;3.90;;;3.47;;
8171;SDS011;4127;47.908;10.850;2022-11-14T20:53:43;5.23;;;4.67;;
8171;SDS011;4127;47.908;10.850;2022-11-14T20:56:11;5.47;;;4.97;;
8171;SDS011;4127;47.908;10.850;2022-11-14T20:58:39;5.20;;;4.63;;
8171;SDS011;4127;47.908;10.850;2022-11-14T21:01:07;5.30;;;4.80;;
8171;SDS011;4127;47.908;10.850;2022-11-14T21:03:35;3.80;;;3.50;;
8171;SDS011;4127;47.908;10.850;2022-11-14T21:06:03;4.70;;;4.07;;
8171;SDS011;4127;47.908;10.850;2022-11-14T21:08:33;4.90;;;4.40;;
8171;SDS011;4127;47.908;10.850;2022-11-14T21:11:02;5.67;;;5.13;;
8171;SDS011;4127;47.908;10.850;2022-11-14T21:13:33;6.80;;;6.10;;
8171;SDS011;4127;47.908;10.850;2022-11-14T21:16:19;5.23;;;4.73;;
8171;SDS011;4127;47.908;10.850;2022-11-14T21:18:53;5.17;;;4.67;;
8171;SDS011;4127;47.908;10.850;2022-11-14T21:21:25;9.13;;;6.73;;
8171;SDS011;4127;47.908;10.850;2022-11-14T21:23:54;6.20;;;5.60;;
8171;SDS011;4127;47.908;10.850;2022-11-14T21:26:35;6.37;;;5.50;;
8171;SDS011;4127;47.908;10.850;2022-11-14T21:29:19;4.30;;;3.80;;
8171;SDS011;4127;47.908;10.850;2022-11-14T21:31:54;4.10;;;3.70;;
8171;SDS011;4127;47.908;10.850;2022-11-14T21:34:39;4.50;;;4.10;;
8171;SDS011;4127;47.908;10.850;2022-11-14T21:37:12;4.57;;;4.17;;
8171;SDS011;4127;47.908;10.850;2022-11-14T21:39:53;5.57;;;4.27;;
8171;SDS011;4127;47.908;10.850;2022-11-14T21:42:21;4.30;;;3.90;;
8171;SDS011;4127;47.908;10.850;2022-11-14T21:44:48;4.67;;;4.27;;
8171;SDS011;4127;47.908;10.850;2022-11-14T21:47:16;7.30;;;4.60;;
8171;SDS011;4127;47.908;10.850;2022-11-14T21:49:43;6.73;;;5.50;;
8171;SDS011;4127;47.908;10.850;2022-11-14T21:52:11;5.40;;;4.60;;
8171;SDS011;4127;47.908;10.850;2022-11-14T21:54:38;5.77;;;5.27;;
8171;SDS011;4127;47.908;10.850;2022-11-14T21:57:07;5.67;;;5.07;;
8171;SDS011;4127;47.908;10.850;2022-11-14T21:59:36;6.20;;;5.60;;
8171;SDS011;4127;47.908;10.850;2022-11-14T22:02:03;6.07;;;5.07;;
8171;SDS011;4127;47.908;10.850;2022-11-14T22:04:49;4.60;;;4.20;;
8171;SDS011;4127;47.908;10.850;2022-11-14T22:07:16;5.17;;;4.67;;
8171;SDS011;4127;47.908;10.850;2022-11-14T22:09:49;4.27;;;3.87;;
8171;SDS011;4127;47.908;10.850;2022-11-14T22:12:25;4.77;;;4.37;;
8171;SDS011;4127;47.908;10.850;2022-11-14T22:14:52;4.57;;;4.17;;
8171;SDS011;4127;47.908;10.850;2022-11-14T22:17:20;4.90;;;4.40;;
8171;SDS011;4127;47.908;10.850;2022-11-14T22:19:49;4.60;;;4.20;;
8171;SDS011;4127;47.908;10.850;2022-11-14T22:22:17;4.53;;;4.13;;
8171;SDS011;4127;47.908;10.850;2022-11-14T22:27:09;5.80;;;4.90;;
8171;SDS011;4127;47.908;10.850;2022-11-14T22:29:37;4.97;;;4.50;;
8171;SDS011;4127;47.908;10.850;2022-11-14T22:32:20;4.83;;;4.40;;
8171;SDS011;4127;47.908;10.850;2022-11-14T22:34:54;5.33;;;4.57;;
8171;SDS011;4127;47.908;10.850;2022-11-14T22:37:23;5.93;;;5.10;;
8171;SDS011;4127;47.908;10.850;2022-11-14T22:39:56;4.43;;;4.03;;
8171;SDS011;4127;47.908;10.850;2022-11-14T22:42:32;5.60;;;4.57;;
8171;SDS011;4127;47.908;10.850;2022-11-14T22:45:22;5.30;;;4.40;;
8171;SDS011;4127;47.908;10.850;2022-11-14T22:47:54;4.30;;;3.90;;
8171;SDS011;4127;47.908;10.850;2022-11-14T22:50:23;3.30;;;3.00;;
8171;SDS011;4127;47.908;10.850;2022-11-14T22:55:19;4.10;;;3.70;;
8171;SDS011;4127;47.908;10.850;2022-11-14T22:57:47;4.20;;;3.80;;
8171;SDS011;4127;47.908;10.850;2022-11-14T23:00:18;5.20;;;4.70;;
8171;SDS011;4127;47.908;10.850;2022-11-14T23:02:45;5.20;;;4.70;;
8171;SDS011;4127;47.908;10.850;2022-11-14T23:05:12;4.77;;;4.33;;
8171;SDS011;4127;47.908;10.850;2022-11-14T23:07:39;5.57;;;4.97;;
8171;SDS011;4127;47.908;10.850;2022-11-14T23:10:06;3.70;;;3.40;;
8171;SDS011;4127;47.908;10.850;2022-11-14T23:12:33;4.37;;;3.87;;
8171;SDS011;4127;47.908;10.850;2022-11-14T23:15:00;4.87;;;4.33;;
8171;SDS011;4127;47.908;10.850;2022-11-14T23:17:27;8.33;;;4.53;;
8171;SDS011;4127;47.908;10.850;2022-11-14T23:19:54;7.00;;;4.97;;
8171;SDS011;4127;47.908;10.850;2022-11-14T23:22:21;5.50;;;4.57;;
8171;SDS011;4127;47.908;10.850;2022-11-14T23:24:48;3.90;;;3.50;;
8171;SDS011;4127;47.908;10.850;2022-11-14T23:27:15;2.90;;;2.60;;
8171;SDS011;4127;47.908;10.850;2022-11-14T23:29:42;4.00;;;3.27;;
8171;SDS011;4127;47.908;10.850;2022-11-14T23:32:09;3.20;;;2.90;;
8171;SDS011;4127;47.908;10.850;2022-11-14T23:34:35;2.90;;;2.70;;
8171;SDS011;4127;47.908;10.850;2022-11-14T23:37:02;2.73;;;2.53;;
8171;SDS011;4127;47.908;10.850;2022-11-14T23:39:29;3.27;;;2.97;;
8171;SDS011;4127;47.908;10.850;2022-11-14T23:41:56;3.30;;;3.00;;
8171;SDS011;4127;47.908;10.850;2022-11-14T23:44:23;3.53;;;3.23;;
8171;SDS011;4127;47.908;10.850;2022-11-14T23:46:50;2.60;;;2.40;;
8171;SDS011;4127;47.908;10.850;2022-11-14T23:51:44;3.13;;;2.90;;
8171;SDS011;4127;47.908;10.850;2022-11-14T23:54:13;3.43;;;3.13;;
8171;SDS011;4127;47.908;10.850;2022-11-14T23:56:40;3.40;;;3.10;;
8171;SDS011;4127;47.908;10.850;2022-11-14T23:59:06;3.43;;;3.13;;
